Watertown Municipal, SD

2:27 AM CDT on April 28, 2017 (GMT -0500)
Watertown Municipal | | Change Station

Elev 1745 ft 44.91 °N, 97.15 °W | Updated 34 minutes ago

Scattered Clouds
Scattered Clouds
31 °F
Feels Like 24 °F
N
7
Wind Variable Wind from West

Today
High -- | Low -- °F
--% Chance of Precip.
Yesterday
High -- | Low -- °F
Precip. -- in
Pressure 29.88 in
Visibility 10.0 miles
Clouds Scattered Clouds 5000 ft
Windchill 24 °F
Dew Point 27 °F
Humidity 85%
Rainfall 0.00 in
Snow Depth Not available.
6:22 AM 8:30 PM
Waxing Crescent, 5% visible
METAR KATY 280653Z AUTO 26006KT 10SM SCT050 M01/M03 A2983 RMK AO2 SLP119 T10061028
Pressure 29.88 in
Visibility 10.0 miles
Clouds Scattered Clouds 5000 ft
Windchill 24 °F
Dew Point 27 °F
Humidity 85%
Rainfall 0.00 in
Snow Depth Not available.
6:22 AM 8:30 PM
Waxing Crescent, 5% visible
METAR KATY 280653Z AUTO 26006KT 10SM SCT050 M01/M03 A2983 RMK AO2 SLP119 T10061028

Get Severe Weather Alerts

Thanks for signing up!

Be on the lookout for a verification email in your inbox.

You'll start receiving the daily forecast at 8 AM.

×

10-Day Weather Forecast

Almanac

Astronomy

Apr. 28, 2017 Rise Set
Actual Time
Civil Twilight
Nautical Twilight
Astronomical Twilight
Moon
Length of Visible Light
Length of Day
Tomorrow will be .
, % of the Moon is Illuminated

Today's Extremes

State Highs State Lows

Community

WunderPhotos

WunderBlog® & News

Nearby

Air Quality

  Air Quality AQ Index Pollutant
Not available.

Snow Depth

Station Depth Elevation

Earthquake Activity

City Distance Mag. Time & Date
Minimum magnitude displayed is 2.5.

Coastal Water Temperatures

Place Temperature

Stations

Nearby Weather Stations

Station Location Temp. Windchill Dew Point Humidity Wind Precip. Elev Updated Type
                   

Watches & Warnings

There are currently no watches in effect.